sensor_id;sensor_type;location;lat;lon;timestamp;temperature;humidity
16929;DHT22;8581;47.334;11.190;2023-03-23T00:01:48;4.50;99.90
16929;DHT22;8581;47.334;11.190;2023-03-23T00:04:19;4.40;99.90
16929;DHT22;8581;47.334;11.190;2023-03-23T00:06:51;4.40;99.90
16929;DHT22;8581;47.334;11.190;2023-03-23T00:09:22;4.50;99.90
16929;DHT22;8581;47.334;11.190;2023-03-23T00:11:54;4.50;99.90
16929;DHT22;8581;47.334;11.190;2023-03-23T00:14:26;4.60;99.90
16929;DHT22;8581;47.334;11.190;2023-03-23T00:16:57;4.50;99.90
16929;DHT22;8581;47.334;11.190;2023-03-23T00:19:29;4.60;99.90
16929;DHT22;8581;47.334;11.190;2023-03-23T00:22:00;4.50;99.90
16929;DHT22;8581;47.334;11.190;2023-03-23T00:24:32;4.50;99.90
16929;DHT22;8581;47.334;11.190;2023-03-23T00:27:04;4.60;99.90
16929;DHT22;8581;47.334;11.190;2023-03-23T00:29:35;4.60;99.90
16929;DHT22;8581;47.334;11.190;2023-03-23T00:32:07;4.60;99.90
16929;DHT22;8581;47.334;11.190;2023-03-23T00:34:40;4.60;99.90
16929;DHT22;8581;47.334;11.190;2023-03-23T00:37:11;4.60;99.90
16929;DHT22;8581;47.334;11.190;2023-03-23T00:39:43;4.70;99.90
16929;DHT22;8581;47.334;11.190;2023-03-23T00:42:15;4.80;99.90
16929;DHT22;8581;47.334;11.190;2023-03-23T00:44:46;4.80;99.90
16929;DHT22;8581;47.334;11.190;2023-03-23T00:47:17;4.90;99.90
16929;DHT22;8581;47.334;11.190;2023-03-23T00:49:49;4.70;99.90
16929;DHT22;8581;47.334;11.190;2023-03-23T00:52:21;4.70;99.90
16929;DHT22;8581;47.334;11.190;2023-03-23T00:54:52;4.70;99.90
16929;DHT22;8581;47.334;11.190;2023-03-23T00:57:24;4.70;99.90
16929;DHT22;8581;47.334;11.190;2023-03-23T00:59:55;4.70;99.90
16929;DHT22;8581;47.334;11.190;2023-03-23T01:02:27;4.80;99.90
16929;DHT22;8581;47.334;11.190;2023-03-23T01:04:59;4.80;99.90
16929;DHT22;8581;47.334;11.190;2023-03-23T01:07:30;4.70;99.90
16929;DHT22;8581;47.334;11.190;2023-03-23T01:10:02;4.80;99.90
16929;DHT22;8581;47.334;11.190;2023-03-23T01:12:33;5.10;99.90
16929;DHT22;8581;47.334;11.190;2023-03-23T01:15:06;4.90;99.90
16929;DHT22;8581;47.334;11.190;2023-03-23T01:17:38;5.00;99.90
16929;DHT22;8581;47.334;11.190;2023-03-23T01:20:11;4.90;99.90
16929;DHT22;8581;47.334;11.190;2023-03-23T01:22:41;4.90;99.90
16929;DHT22;8581;47.334;11.190;2023-03-23T01:25:13;4.90;99.90
16929;DHT22;8581;47.334;11.190;2023-03-23T01:27:45;5.00;99.90
16929;DHT22;8581;47.334;11.190;2023-03-23T01:30:16;5.00;99.90
16929;DHT22;8581;47.334;11.190;2023-03-23T01:32:48;4.90;99.90
16929;DHT22;8581;47.334;11.190;2023-03-23T01:35:20;5.00;99.90
16929;DHT22;8581;47.334;11.190;2023-03-23T01:37:51;4.90;99.90
16929;DHT22;8581;47.334;11.190;2023-03-23T01:40:23;4.70;99.90
16929;DHT22;8581;47.334;11.190;2023-03-23T01:42:54;4.70;99.90
16929;DHT22;8581;47.334;11.190;2023-03-23T01:45:27;4.70;99.90
16929;DHT22;8581;47.334;11.190;2023-03-23T01:48:03;4.70;99.90
16929;DHT22;8581;47.334;11.190;2023-03-23T01:50:36;4.60;99.90
16929;DHT22;8581;47.334;11.190;2023-03-23T01:53:06;4.40;99.90
16929;DHT22;8581;47.334;11.190;2023-03-23T01:55:38;4.40;99.90
16929;DHT22;8581;47.334;11.190;2023-03-23T01:58:09;4.30;99.90
16929;DHT22;8581;47.334;11.190;2023-03-23T02:00:41;4.30;99.90
16929;DHT22;8581;47.334;11.190;2023-03-23T02:03:12;4.40;99.90
16929;DHT22;8581;47.334;11.190;2023-03-23T02:05:44;4.40;99.90
16929;DHT22;8581;47.334;11.190;2023-03-23T02:08:15;4.50;99.90
16929;DHT22;8581;47.334;11.190;2023-03-23T02:10:47;4.60;99.90
16929;DHT22;8581;47.334;11.190;2023-03-23T02:13:19;4.60;99.90
16929;DHT22;8581;47.334;11.190;2023-03-23T02:15:56;4.80;99.90
16929;DHT22;8581;47.334;11.190;2023-03-23T02:18:46;4.70;99.90
16929;DHT22;8581;47.334;11.190;2023-03-23T02:26:50;4.50;99.90
16929;DHT22;8581;47.334;11.190;2023-03-23T02:32:10;4.60;99.90
16929;DHT22;8581;47.334;11.190;2023-03-23T02:34:43;4.70;99.90
16929;DHT22;8581;47.334;11.190;2023-03-23T02:37:18;4.70;99.90
16929;DHT22;8581;47.334;11.190;2023-03-23T02:39:52;4.60;99.90
16929;DHT22;8581;47.334;11.190;2023-03-23T02:42:25;4.60;99.90
16929;DHT22;8581;47.334;11.190;2023-03-23T02:44:55;4.60;99.90
16929;DHT22;8581;47.334;11.190;2023-03-23T02:47:26;4.60;99.90
16929;DHT22;8581;47.334;11.190;2023-03-23T02:49:58;4.60;99.90
16929;DHT22;8581;47.334;11.190;2023-03-23T02:52:30;4.50;99.90
16929;DHT22;8581;47.334;11.190;2023-03-23T02:55:01;4.40;99.90
16929;DHT22;8581;47.334;11.190;2023-03-23T02:57:33;4.40;99.90
16929;DHT22;8581;47.334;11.190;2023-03-23T03:00:06;4.50;99.90
16929;DHT22;8581;47.334;11.190;2023-03-23T03:02:38;4.50;99.90
16929;DHT22;8581;47.334;11.190;2023-03-23T03:05:18;4.40;99.90
16929;DHT22;8581;47.334;11.190;2023-03-23T03:08:10;4.40;99.90
16929;DHT22;8581;47.334;11.190;2023-03-23T03:10:45;4.30;99.90
16929;DHT22;8581;47.334;11.190;2023-03-23T03:13:20;4.30;99.90
16929;DHT22;8581;47.334;11.190;2023-03-23T03:15:53;4.30;99.90
16929;DHT22;8581;47.334;11.190;2023-03-23T03:18:28;4.30;99.90
16929;DHT22;8581;47.334;11.190;2023-03-23T03:21:00;4.30;99.90
16929;DHT22;8581;47.334;11.190;2023-03-23T03:23:30;4.30;99.90
16929;DHT22;8581;47.334;11.190;2023-03-23T03:26:02;4.20;99.90
16929;DHT22;8581;47.334;11.190;2023-03-23T03:28:33;4.30;99.90
16929;DHT22;8581;47.334;11.190;2023-03-23T03:31:05;4.30;99.90
16929;DHT22;8581;47.334;11.190;2023-03-23T03:33:36;4.20;99.90
16929;DHT22;8581;47.334;11.190;2023-03-23T03:36:08;4.20;99.90
16929;DHT22;8581;47.334;11.190;2023-03-23T03:38:42;4.20;99.90
16929;DHT22;8581;47.334;11.190;2023-03-23T03:41:13;4.20;99.90
16929;DHT22;8581;47.334;11.190;2023-03-23T03:43:45;4.20;99.90
16929;DHT22;8581;47.334;11.190;2023-03-23T03:46:16;4.30;99.90
16929;DHT22;8581;47.334;11.190;2023-03-23T03:48:48;4.10;99.90
16929;DHT22;8581;47.334;11.190;2023-03-23T03:51:20;4.20;99.90
16929;DHT22;8581;47.334;11.190;2023-03-23T03:53:51;4.10;99.90
16929;DHT22;8581;47.334;11.190;2023-03-23T03:56:23;4.00;99.90
16929;DHT22;8581;47.334;11.190;2023-03-23T03:58:54;4.00;99.90
16929;DHT22;8581;47.334;11.190;2023-03-23T04:01:26;4.10;99.90
16929;DHT22;8581;47.334;11.190;2023-03-23T04:03:57;4.10;99.90
16929;DHT22;8581;47.334;11.190;2023-03-23T04:06:29;4.10;99.90
16929;DHT22;8581;47.334;11.190;2023-03-23T04:09:01;4.20;99.90
16929;DHT22;8581;47.334;11.190;2023-03-23T04:11:32;4.10;99.90
16929;DHT22;8581;47.334;11.190;2023-03-23T04:14:04;3.90;99.90
16929;DHT22;8581;47.334;11.190;2023-03-23T04:16:36;3.80;99.90
16929;DHT22;8581;47.334;11.190;2023-03-23T04:19:07;3.90;99.90
16929;DHT22;8581;47.334;11.190;2023-03-23T04:21:39;3.80;99.90
16929;DHT22;8581;47.334;11.190;2023-03-23T04:24:10;3.70;99.90
16929;DHT22;8581;47.334;11.190;2023-03-23T04:26:42;3.70;99.90
16929;DHT22;8581;47.334;11.190;2023-03-23T04:29:14;3.70;99.90
16929;DHT22;8581;47.334;11.190;2023-03-23T04:31:45;3.70;99.90
16929;DHT22;8581;47.334;11.190;2023-03-23T04:34:17;3.70;99.90
16929;DHT22;8581;47.334;11.190;2023-03-23T04:36:48;3.70;99.90
16929;DHT22;8581;47.334;11.190;2023-03-23T04:39:20;3.80;99.90
16929;DHT22;8581;47.334;11.190;2023-03-23T04:41:52;3.90;99.90
16929;DHT22;8581;47.334;11.190;2023-03-23T04:44:23;3.90;99.90
16929;DHT22;8581;47.334;11.190;2023-03-23T04:46:55;3.90;99.90
16929;DHT22;8581;47.334;11.190;2023-03-23T04:49:26;3.80;99.90
16929;DHT22;8581;47.334;11.190;2023-03-23T04:51:58;3.70;99.90
16929;DHT22;8581;47.334;11.190;2023-03-23T04:54:29;3.80;99.90
16929;DHT22;8581;47.334;11.190;2023-03-23T04:57:01;3.80;99.90
16929;DHT22;8581;47.334;11.190;2023-03-23T04:59:33;3.80;99.90
16929;DHT22;8581;47.334;11.190;2023-03-23T05:02:04;3.90;99.90
16929;DHT22;8581;47.334;11.190;2023-03-23T05:04:36;4.00;99.90
16929;DHT22;8581;47.334;11.190;2023-03-23T05:07:08;4.00;99.90
16929;DHT22;8581;47.334;11.190;2023-03-23T05:09:39;3.90;99.90
16929;DHT22;8581;47.334;11.190;2023-03-23T05:12:11;3.90;99.90
16929;DHT22;8581;47.334;11.190;2023-03-23T05:14:42;3.90;99.90
16929;DHT22;8581;47.334;11.190;2023-03-23T05:17:14;3.80;99.90
16929;DHT22;8581;47.334;11.190;2023-03-23T05:19:46;3.70;99.90
16929;DHT22;8581;47.334;11.190;2023-03-23T05:22:18;3.70;99.90
16929;DHT22;8581;47.334;11.190;2023-03-23T05:24:50;3.70;99.90
16929;DHT22;8581;47.334;11.190;2023-03-23T05:27:22;3.70;99.90
16929;DHT22;8581;47.334;11.190;2023-03-23T05:29:53;3.70;99.90
16929;DHT22;8581;47.334;11.190;2023-03-23T05:32:25;3.90;99.90
16929;DHT22;8581;47.334;11.190;2023-03-23T05:34:57;3.90;99.90
16929;DHT22;8581;47.334;11.190;2023-03-23T05:37:28;3.90;99.90
16929;DHT22;8581;47.334;11.190;2023-03-23T05:40:00;4.10;99.90
16929;DHT22;8581;47.334;11.190;2023-03-23T05:42:33;4.10;99.90
16929;DHT22;8581;47.334;11.190;2023-03-23T05:45:05;4.10;99.90
16929;DHT22;8581;47.334;11.190;2023-03-23T05:47:37;4.20;99.90
16929;DHT22;8581;47.334;11.190;2023-03-23T05:50:09;4.50;99.90
16929;DHT22;8581;47.334;11.190;2023-03-23T05:52:48;4.60;99.90
16929;DHT22;8581;47.334;11.190;2023-03-23T05:55:21;4.80;99.90
16929;DHT22;8581;47.334;11.190;2023-03-23T05:57:53;4.80;99.90
16929;DHT22;8581;47.334;11.190;2023-03-23T06:00:25;5.00;99.90
16929;DHT22;8581;47.334;11.190;2023-03-23T06:02:56;5.20;99.90
16929;DHT22;8581;47.334;11.190;2023-03-23T06:05:28;5.30;99.90
16929;DHT22;8581;47.334;11.190;2023-03-23T06:07:59;5.60;99.90
16929;DHT22;8581;47.334;11.190;2023-03-23T06:10:31;5.80;99.90
16929;DHT22;8581;47.334;11.190;2023-03-23T06:13:03;6.00;99.90
16929;DHT22;8581;47.334;11.190;2023-03-23T06:15:34;6.30;99.90
16929;DHT22;8581;47.334;11.190;2023-03-23T06:18:06;6.60;99.90
16929;DHT22;8581;47.334;11.190;2023-03-23T06:20:38;6.90;99.90
16929;DHT22;8581;47.334;11.190;2023-03-23T06:23:09;6.80;99.90
16929;DHT22;8581;47.334;11.190;2023-03-23T06:25:41;6.70;99.90
16929;DHT22;8581;47.334;11.190;2023-03-23T06:28:12;6.70;99.90
16929;DHT22;8581;47.334;11.190;2023-03-23T06:30:44;6.70;99.90
16929;DHT22;8581;47.334;11.190;2023-03-23T06:33:16;6.90;99.90
16929;DHT22;8581;47.334;11.190;2023-03-23T06:35:47;6.80;99.90
16929;DHT22;8581;47.334;11.190;2023-03-23T06:38:19;6.90;99.90
16929;DHT22;8581;47.334;11.190;2023-03-23T06:40:53;6.80;99.90
16929;DHT22;8581;47.334;11.190;2023-03-23T06:43:24;6.80;99.90
16929;DHT22;8581;47.334;11.190;2023-03-23T06:45:58;7.00;99.90
16929;DHT22;8581;47.334;11.190;2023-03-23T06:48:27;7.10;99.90
16929;DHT22;8581;47.334;11.190;2023-03-23T06:50:59;7.10;99.90
16929;DHT22;8581;47.334;11.190;2023-03-23T06:53:30;7.30;99.90
16929;DHT22;8581;47.334;11.190;2023-03-23T06:56:02;7.40;99.90
16929;DHT22;8581;47.334;11.190;2023-03-23T06:58:34;7.60;99.90
16929;DHT22;8581;47.334;11.190;2023-03-23T07:01:06;7.70;99.90
16929;DHT22;8581;47.334;11.190;2023-03-23T07:03:37;7.80;99.90
16929;DHT22;8581;47.334;11.190;2023-03-23T07:06:09;7.80;99.90
16929;DHT22;8581;47.334;11.190;2023-03-23T07:08:41;8.10;99.90
16929;DHT22;8581;47.334;11.190;2023-03-23T07:11:12;8.30;99.90
16929;DHT22;8581;47.334;11.190;2023-03-23T07:13:44;8.30;99.90
16929;DHT22;8581;47.334;11.190;2023-03-23T07:16:16;8.40;99.90
16929;DHT22;8581;47.334;11.190;2023-03-23T07:18:47;8.70;99.90
16929;DHT22;8581;47.334;11.190;2023-03-23T07:21:19;8.80;99.90
16929;DHT22;8581;47.334;11.190;2023-03-23T07:23:50;9.30;99.90
16929;DHT22;8581;47.334;11.190;2023-03-23T07:26:22;9.20;99.90
16929;DHT22;8581;47.334;11.190;2023-03-23T07:28:53;8.90;99.90
16929;DHT22;8581;47.334;11.190;2023-03-23T07:31:25;9.40;99.90
16929;DHT22;8581;47.334;11.190;2023-03-23T07:33:57;9.70;99.90
16929;DHT22;8581;47.334;11.190;2023-03-23T07:36:28;9.70;99.90
16929;DHT22;8581;47.334;11.190;2023-03-23T07:39:00;10.30;99.90
16929;DHT22;8581;47.334;11.190;2023-03-23T07:41:32;10.60;99.90
16929;DHT22;8581;47.334;11.190;2023-03-23T07:44:04;10.60;99.90
16929;DHT22;8581;47.334;11.190;2023-03-23T07:46:36;11.00;99.90
16929;DHT22;8581;47.334;11.190;2023-03-23T07:49:07;11.20;99.90
16929;DHT22;8581;47.334;11.190;2023-03-23T07:51:39;11.20;99.90
16929;DHT22;8581;47.334;11.190;2023-03-23T07:54:11;11.30;99.90
16929;DHT22;8581;47.334;11.190;2023-03-23T07:56:42;11.70;99.90
16929;DHT22;8581;47.334;11.190;2023-03-23T07:59:14;11.70;99.90
16929;DHT22;8581;47.334;11.190;2023-03-23T08:01:45;11.80;99.90
16929;DHT22;8581;47.334;11.190;2023-03-23T08:04:17;11.80;99.90
16929;DHT22;8581;47.334;11.190;2023-03-23T08:06:49;11.90;99.90
16929;DHT22;8581;47.334;11.190;2023-03-23T08:09:20;11.90;99.90
16929;DHT22;8581;47.334;11.190;2023-03-23T08:11:52;11.90;99.90
16929;DHT22;8581;47.334;11.190;2023-03-23T08:14:24;12.30;99.90
16929;DHT22;8581;47.334;11.190;2023-03-23T08:16:55;12.70;99.90
16929;DHT22;8581;47.334;11.190;2023-03-23T08:19:28;12.50;99.90
16929;DHT22;8581;47.334;11.190;2023-03-23T08:22:00;12.50;99.90
16929;DHT22;8581;47.334;11.190;2023-03-23T08:24:34;12.30;99.90
16929;DHT22;8581;47.334;11.190;2023-03-23T08:27:09;12.20;99.90
16929;DHT22;8581;47.334;11.190;2023-03-23T08:29:40;12.10;99.90
16929;DHT22;8581;47.334;11.190;2023-03-23T08:32:12;12.40;99.90
16929;DHT22;8581;47.334;11.190;2023-03-23T08:34:43;13.00;99.90
16929;DHT22;8581;47.334;11.190;2023-03-23T08:37:15;13.30;99.90
16929;DHT22;8581;47.334;11.190;2023-03-23T08:39:51;13.10;99.90
16929;DHT22;8581;47.334;11.190;2023-03-23T08:42:23;13.30;99.90
16929;DHT22;8581;47.334;11.190;2023-03-23T08:44:57;13.70;99.90
16929;DHT22;8581;47.334;11.190;2023-03-23T08:47:29;13.60;99.90
16929;DHT22;8581;47.334;11.190;2023-03-23T08:50:01;13.60;99.90
16929;DHT22;8581;47.334;11.190;2023-03-23T08:52:32;13.00;99.90
16929;DHT22;8581;47.334;11.190;2023-03-23T08:55:04;12.90;99.90
16929;DHT22;8581;47.334;11.190;2023-03-23T08:57:36;13.00;99.90
16929;DHT22;8581;47.334;11.190;2023-03-23T09:00:10;13.10;99.90
16929;DHT22;8581;47.334;11.190;2023-03-23T09:02:46;13.40;99.90
16929;DHT22;8581;47.334;11.190;2023-03-23T09:05:18;13.70;99.90
16929;DHT22;8581;47.334;11.190;2023-03-23T09:07:48;13.90;99.90
16929;DHT22;8581;47.334;11.190;2023-03-23T09:10:20;13.90;99.90
16929;DHT22;8581;47.334;11.190;2023-03-23T09:12:51;14.10;99.90
16929;DHT22;8581;47.334;11.190;2023-03-23T09:15:23;14.30;99.90
16929;DHT22;8581;47.334;11.190;2023-03-23T09:17:54;14.40;99.90
16929;DHT22;8581;47.334;11.190;2023-03-23T09:20:26;14.10;99.90
16929;DHT22;8581;47.334;11.190;2023-03-23T09:22:58;13.90;99.90
16929;DHT22;8581;47.334;11.190;2023-03-23T09:25:30;14.10;99.90
16929;DHT22;8581;47.334;11.190;2023-03-23T09:28:02;14.30;99.90
16929;DHT22;8581;47.334;11.190;2023-03-23T09:30:35;14.60;99.90
16929;DHT22;8581;47.334;11.190;2023-03-23T09:33:07;14.50;99.90
16929;DHT22;8581;47.334;11.190;2023-03-23T09:35:39;14.30;99.90
16929;DHT22;8581;47.334;11.190;2023-03-23T09:38:10;14.40;99.90
16929;DHT22;8581;47.334;11.190;2023-03-23T09:40:49;14.50;99.90
16929;DHT22;8581;47.334;11.190;2023-03-23T09:43:35;14.40;99.90
16929;DHT22;8581;47.334;11.190;2023-03-23T09:46:26;14.70;99.90
16929;DHT22;8581;47.334;11.190;2023-03-23T09:48:55;14.60;99.90
16929;DHT22;8581;47.334;11.190;2023-03-23T09:51:35;14.50;99.90
16929;DHT22;8581;47.334;11.190;2023-03-23T09:54:16;15.00;99.90
16929;DHT22;8581;47.334;11.190;2023-03-23T09:56:45;15.50;99.90
16929;DHT22;8581;47.334;11.190;2023-03-23T09:59:24;16.20;99.90
16929;DHT22;8581;47.334;11.190;2023-03-23T10:01:55;16.20;99.90
16929;DHT22;8581;47.334;11.190;2023-03-23T10:04:28;15.80;99.90
16929;DHT22;8581;47.334;11.190;2023-03-23T10:06:59;16.00;99.90
16929;DHT22;8581;47.334;11.190;2023-03-23T10:09:30;16.80;99.90
16929;DHT22;8581;47.334;11.190;2023-03-23T10:12:14;17.10;99.90
16929;DHT22;8581;47.334;11.190;2023-03-23T10:14:47;17.30;99.90
16929;DHT22;8581;47.334;11.190;2023-03-23T10:17:50;17.30;99.90
16929;DHT22;8581;47.334;11.190;2023-03-23T10:23:12;17.20;99.90
16929;DHT22;8581;47.334;11.190;2023-03-23T10:25:41;16.90;99.90
16929;DHT22;8581;47.334;11.190;2023-03-23T10:28:13;16.80;99.90
16929;DHT22;8581;47.334;11.190;2023-03-23T10:30:47;17.20;99.90
16929;DHT22;8581;47.334;11.190;2023-03-23T10:33:22;18.30;99.90
16929;DHT22;8581;47.334;11.190;2023-03-23T10:35:57;19.40;99.90
16929;DHT22;8581;47.334;11.190;2023-03-23T10:38:29;20.40;99.10
16929;DHT22;8581;47.334;11.190;2023-03-23T10:41:00;21.10;98.30
16929;DHT22;8581;47.334;11.190;2023-03-23T10:43:30;21.00;95.90
16929;DHT22;8581;47.334;11.190;2023-03-23T10:46:15;21.30;95.40
16929;DHT22;8581;47.334;11.190;2023-03-23T10:48:37;21.00;95.20
16929;DHT22;8581;47.334;11.190;2023-03-23T10:51:10;20.90;94.40
16929;DHT22;8581;47.334;11.190;2023-03-23T10:53:44;20.50;93.30
16929;DHT22;8581;47.334;11.190;2023-03-23T10:56:22;20.00;93.20
16929;DHT22;8581;47.334;11.190;2023-03-23T10:58:51;19.60;94.10
16929;DHT22;8581;47.334;11.190;2023-03-23T11:01:32;19.20;95.10
16929;DHT22;8581;47.334;11.190;2023-03-23T11:04:03;17.90;96.20
16929;DHT22;8581;47.334;11.190;2023-03-23T11:06:35;17.40;96.70
16929;DHT22;8581;47.334;11.190;2023-03-23T11:09:12;16.90;97.10
16929;DHT22;8581;47.334;11.190;2023-03-23T11:11:48;16.70;97.70
16929;DHT22;8581;47.334;11.190;2023-03-23T11:14:24;16.20;98.00
16929;DHT22;8581;47.334;11.190;2023-03-23T11:16:51;16.50;98.20
16929;DHT22;8581;47.334;11.190;2023-03-23T11:19:24;16.50;98.50
16929;DHT22;8581;47.334;11.190;2023-03-23T11:22:28;16.30;99.10
16929;DHT22;8581;47.334;11.190;2023-03-23T11:24:44;16.40;98.60
16929;DHT22;8581;47.334;11.190;2023-03-23T11:27:14;16.80;98.40
16929;DHT22;8581;47.334;11.190;2023-03-23T11:29:51;16.80;98.10
16929;DHT22;8581;47.334;11.190;2023-03-23T11:32:24;16.60;97.40
16929;DHT22;8581;47.334;11.190;2023-03-23T11:34:58;16.70;97.70
16929;DHT22;8581;47.334;11.190;2023-03-23T11:37:32;16.80;97.30
16929;DHT22;8581;47.334;11.190;2023-03-23T11:42:58;17.80;96.90
16929;DHT22;8581;47.334;11.190;2023-03-23T11:45:34;17.90;96.90
16929;DHT22;8581;47.334;11.190;2023-03-23T11:50:47;18.10;96.30
16929;DHT22;8581;47.334;11.190;2023-03-23T11:54:33;18.20;95.40
16929;DHT22;8581;47.334;11.190;2023-03-23T11:56:27;18.90;96.60
16929;DHT22;8581;47.334;11.190;2023-03-23T11:58:56;18.70;95.30
16929;DHT22;8581;47.334;11.190;2023-03-23T12:01:53;19.40;95.50
16929;DHT22;8581;47.334;11.190;2023-03-23T12:04:30;19.60;95.40
16929;DHT22;8581;47.334;11.190;2023-03-23T12:07:11;19.40;94.90
16929;DHT22;8581;47.334;11.190;2023-03-23T12:15:19;18.90;94.40
16929;DHT22;8581;47.334;11.190;2023-03-23T12:17:53;18.50;94.20
16929;DHT22;8581;47.334;11.190;2023-03-23T12:23:20;18.40;93.80
16929;DHT22;8581;47.334;11.190;2023-03-23T12:25:58;18.60;90.50
16929;DHT22;8581;47.334;11.190;2023-03-23T12:28:52;18.60;93.80
16929;DHT22;8581;47.334;11.190;2023-03-23T12:31:25;18.60;92.80
16929;DHT22;8581;47.334;11.190;2023-03-23T12:34:06;19.00;92.60
16929;DHT22;8581;47.334;11.190;2023-03-23T12:36:44;19.20;93.00
16929;DHT22;8581;47.334;11.190;2023-03-23T12:39:29;18.90;94.00
16929;DHT22;8581;47.334;11.190;2023-03-23T12:41:49;19.20;92.80
16929;DHT22;8581;47.334;11.190;2023-03-23T12:44:22;20.00;91.90
16929;DHT22;8581;47.334;11.190;2023-03-23T12:47:07;20.80;91.40
16929;DHT22;8581;47.334;11.190;2023-03-23T12:49:39;20.90;88.00
16929;DHT22;8581;47.334;11.190;2023-03-23T12:52:18;20.80;87.20
16929;DHT22;8581;47.334;11.190;2023-03-23T12:54:59;20.80;87.00
16929;DHT22;8581;47.334;11.190;2023-03-23T12:57:33;20.60;84.40
16929;DHT22;8581;47.334;11.190;2023-03-23T13:00:12;20.40;84.10
16929;DHT22;8581;47.334;11.190;2023-03-23T13:02:41;20.30;86.60
16929;DHT22;8581;47.334;11.190;2023-03-23T13:05:33;20.90;87.00
16929;DHT22;8581;47.334;11.190;2023-03-23T13:08:07;21.60;84.00
16929;DHT22;8581;47.334;11.190;2023-03-23T13:10:41;21.80;86.00
16929;DHT22;8581;47.334;11.190;2023-03-23T13:13:18;22.30;79.90
16929;DHT22;8581;47.334;11.190;2023-03-23T13:16:07;21.90;81.30
16929;DHT22;8581;47.334;11.190;2023-03-23T13:18:44;22.00;77.80
16929;DHT22;8581;47.334;11.190;2023-03-23T13:21:20;22.40;76.80
16929;DHT22;8581;47.334;11.190;2023-03-23T13:23:53;23.60;77.20
16929;DHT22;8581;47.334;11.190;2023-03-23T13:26:23;23.50;74.20
16929;DHT22;8581;47.334;11.190;2023-03-23T13:28:57;24.30;72.20
16929;DHT22;8581;47.334;11.190;2023-03-23T13:31:31;24.60;70.30
16929;DHT22;8581;47.334;11.190;2023-03-23T13:34:04;24.90;69.10
16929;DHT22;8581;47.334;11.190;2023-03-23T13:39:38;25.50;71.20
16929;DHT22;8581;47.334;11.190;2023-03-23T13:42:24;25.00;66.00
16929;DHT22;8581;47.334;11.190;2023-03-23T13:44:56;24.60;66.70
16929;DHT22;8581;47.334;11.190;2023-03-23T13:47:28;25.10;67.70
16929;DHT22;8581;47.334;11.190;2023-03-23T13:50:01;25.50;65.30
16929;DHT22;8581;47.334;11.190;2023-03-23T13:52:52;25.30;66.00
16929;DHT22;8581;47.334;11.190;2023-03-23T13:58:25;24.10;67.90
16929;DHT22;8581;47.334;11.190;2023-03-23T14:03:40;22.70;74.40
16929;DHT22;8581;47.334;11.190;2023-03-23T14:06:13;22.00;73.40
16929;DHT22;8581;47.334;11.190;2023-03-23T14:08:45;21.80;76.50
16929;DHT22;8581;47.334;11.190;2023-03-23T14:11:20;21.00;77.20
16929;DHT22;8581;47.334;11.190;2023-03-23T14:13:58;20.70;79.40
16929;DHT22;8581;47.334;11.190;2023-03-23T14:16:23;20.80;78.70
16929;DHT22;8581;47.334;11.190;2023-03-23T14:18:56;20.70;78.50
16929;DHT22;8581;47.334;11.190;2023-03-23T14:21:32;21.80;77.40
16929;DHT22;8581;47.334;11.190;2023-03-23T14:24:06;22.20;76.70
16929;DHT22;8581;47.334;11.190;2023-03-23T14:26:36;22.40;74.60
16929;DHT22;8581;47.334;11.190;2023-03-23T14:29:09;23.00;72.80
16929;DHT22;8581;47.334;11.190;2023-03-23T14:31:39;21.80;73.60
16929;DHT22;8581;47.334;11.190;2023-03-23T14:34:14;22.80;71.80
16929;DHT22;8581;47.334;11.190;2023-03-23T14:36:44;23.20;72.20
16929;DHT22;8581;47.334;11.190;2023-03-23T14:39:21;23.70;70.00
16929;DHT22;8581;47.334;11.190;2023-03-23T14:41:52;23.50;69.30
16929;DHT22;8581;47.334;11.190;2023-03-23T14:44:29;23.30;72.70
16929;DHT22;8581;47.334;11.190;2023-03-23T14:47:02;23.40;73.00
16929;DHT22;8581;47.334;11.190;2023-03-23T14:49:35;23.50;73.30
16929;DHT22;8581;47.334;11.190;2023-03-23T14:52:10;24.50;71.50
16929;DHT22;8581;47.334;11.190;2023-03-23T14:54:40;26.00;69.20
16929;DHT22;8581;47.334;11.190;2023-03-23T14:57:15;28.40;61.80
16929;DHT22;8581;47.334;11.190;2023-03-23T14:59:46;28.40;64.40
16929;DHT22;8581;47.334;11.190;2023-03-23T15:02:23;29.60;62.80
16929;DHT22;8581;47.334;11.190;2023-03-23T15:04:50;30.40;61.90
16929;DHT22;8581;47.334;11.190;2023-03-23T15:07:20;28.50;62.40
16929;DHT22;8581;47.334;11.190;2023-03-23T15:09:52;26.60;65.80
16929;DHT22;8581;47.334;11.190;2023-03-23T15:12:27;24.10;68.50
16929;DHT22;8581;47.334;11.190;2023-03-23T15:15:00;23.10;73.30
16929;DHT22;8581;47.334;11.190;2023-03-23T15:17:32;22.80;74.60
16929;DHT22;8581;47.334;11.190;2023-03-23T15:20:19;22.60;75.50
16929;DHT22;8581;47.334;11.190;2023-03-23T15:22:45;22.50;76.70
16929;DHT22;8581;47.334;11.190;2023-03-23T15:25:18;22.70;77.60
16929;DHT22;8581;47.334;11.190;2023-03-23T15:27:50;23.60;75.70
16929;DHT22;8581;47.334;11.190;2023-03-23T15:30:33;23.80;75.00
16929;DHT22;8581;47.334;11.190;2023-03-23T15:33:06;23.30;75.30
16929;DHT22;8581;47.334;11.190;2023-03-23T15:35:38;22.90;77.40
16929;DHT22;8581;47.334;11.190;2023-03-23T15:38:18;22.90;77.40
16929;DHT22;8581;47.334;11.190;2023-03-23T15:40:49;22.80;77.20
16929;DHT22;8581;47.334;11.190;2023-03-23T15:43:23;21.70;79.60
16929;DHT22;8581;47.334;11.190;2023-03-23T15:45:55;21.00;81.10
16929;DHT22;8581;47.334;11.190;2023-03-23T15:48:25;19.80;83.70
16929;DHT22;8581;47.334;11.190;2023-03-23T15:50:57;18.70;86.40
16929;DHT22;8581;47.334;11.190;2023-03-23T15:53:31;18.10;88.70
16929;DHT22;8581;47.334;11.190;2023-03-23T15:56:02;17.70;89.70
16929;DHT22;8581;47.334;11.190;2023-03-23T15:58:34;17.60;90.00
16929;DHT22;8581;47.334;11.190;2023-03-23T16:01:07;17.30;90.20
16929;DHT22;8581;47.334;11.190;2023-03-23T16:03:39;16.70;91.30
16929;DHT22;8581;47.334;11.190;2023-03-23T16:06:11;16.20;92.00
16929;DHT22;8581;47.334;11.190;2023-03-23T16:08:42;16.10;92.50
16929;DHT22;8581;47.334;11.190;2023-03-23T16:11:14;16.10;92.50
16929;DHT22;8581;47.334;11.190;2023-03-23T16:13:45;16.10;92.80
16929;DHT22;8581;47.334;11.190;2023-03-23T16:16:18;15.90;92.90
16929;DHT22;8581;47.334;11.190;2023-03-23T16:18:48;15.90;93.30
16929;DHT22;8581;47.334;11.190;2023-03-23T16:21:20;15.60;93.50
16929;DHT22;8581;47.334;11.190;2023-03-23T16:23:52;15.50;93.50
16929;DHT22;8581;47.334;11.190;2023-03-23T16:26:24;15.20;94.20
16929;DHT22;8581;47.334;11.190;2023-03-23T16:28:55;15.00;94.30
16929;DHT22;8581;47.334;11.190;2023-03-23T16:31:27;14.90;94.90
16929;DHT22;8581;47.334;11.190;2023-03-23T16:33:58;15.00;94.50
16929;DHT22;8581;47.334;11.190;2023-03-23T16:36:30;14.80;94.80
16929;DHT22;8581;47.334;11.190;2023-03-23T16:39:01;14.60;95.20
16929;DHT22;8581;47.334;11.190;2023-03-23T16:41:33;14.50;95.50
16929;DHT22;8581;47.334;11.190;2023-03-23T16:44:05;14.40;95.40
16929;DHT22;8581;47.334;11.190;2023-03-23T16:46:36;14.30;95.80
16929;DHT22;8581;47.334;11.190;2023-03-23T16:49:08;14.20;96.20